Time;durP1;ratioP1;P1;durP2;ratioP2;P2;SDS_P1;SDS_P2;PMS_P1;PMS_P2;Temp;Humidity;BMP_temperature;BMP_pressure;BME280_temperature;BME280_humidity;BME280_pressure;Samples;Min_cycle;Max_cycle;Signal;HPM_P1;HPM_P2
2022/12/21 00:01:54;;;;;;;26.98;19.27;;;;;;;9.62;100.00;101007.09;5054708;28;20025;-67
2022/12/21 00:04:20;;;;;;;31.98;20.55;;;;;;;9.60;100.00;100999.16;5072712;28;20024;-67
2022/12/21 00:06:45;;;;;;;27.50;19.80;;;;;;;9.61;100.00;100992.13;5054556;28;20029;-67
2022/12/21 00:09:13;;;;;;;23.67;16.50;;;;;;;9.60;100.00;100988.59;5072760;28;20398;-67
2022/12/21 00:11:38;;;;;;;31.50;20.42;;;;;;;9.61;100.00;100998.28;5054590;28;20116;-68
2022/12/21 00:14:04;;;;;;;29.05;20.02;;;;;;;9.60;100.00;100999.16;5072632;28;20130;-67
2022/12/21 00:16:33;;;;;;;29.33;20.15;;;;;;;9.56;100.00;100992.06;5072804;28;20086;-68
2022/12/21 00:18:59;;;;;;;31.20;20.52;;;;;;;9.55;100.00;100990.28;5072525;28;20073;-68
2022/12/21 00:21:28;;;;;;;32.22;20.95;;;;;;;9.51;100.00;100986.69;5072547;28;20471;-67
2022/12/21 00:23:58;;;;;;;31.35;20.27;;;;;;;9.50;100.00;100982.25;5072517;28;20020;-67
2022/12/21 00:26:26;;;;;;;27.70;18.75;;;;;;;9.48;100.00;100983.13;5072577;28;20486;-68
2022/12/21 00:28:53;;;;;;;33.95;20.00;;;;;;;9.46;100.00;100987.47;5072448;28;20070;-68
2022/12/21 00:31:25;;;;;;;29.05;19.42;;;;;;;9.43;100.00;100990.06;5072446;28;20364;-68
2022/12/21 00:33:51;;;;;;;32.75;19.52;;;;;;;9.42;100.00;100991.81;5072437;28;20482;-68
2022/12/21 00:36:18;;;;;;;30.58;19.63;;;;;;;9.42;100.00;100999.72;5072505;28;20024;-68
2022/12/21 00:38:46;;;;;;;29.75;19.92;;;;;;;9.42;100.00;101001.44;5072318;28;20397;-68
2022/12/21 00:41:14;;;;;;;33.75;21.52;;;;;;;9.43;100.00;101008.53;5072298;28;20040;-68
2022/12/21 00:43:41;;;;;;;32.40;20.85;;;;;;;9.43;100.00;101009.41;5072457;28;20041;-67
2022/12/21 00:46:10;;;;;;;30.70;20.75;;;;;;;9.46;100.00;101005.91;5072183;28;20074;-68
2022/12/21 00:48:36;;;;;;;30.90;19.73;;;;;;;9.43;100.00;101003.25;5072086;28;20056;-67
2022/12/21 00:51:10;;;;;;;31.67;19.67;;;;;;;9.41;100.00;101011.13;5072234;28;20037;-67
2022/12/21 00:53:36;;;;;;;34.20;20.52;;;;;;;9.40;100.00;101000.56;5072525;28;20035;-68
2022/12/21 00:56:03;;;;;;;31.70;20.67;;;;;;;9.36;100.00;100990.81;5075778;28;20111;-67
2022/12/21 00:58:29;;;;;;;31.00;20.73;;;;;;;9.36;100.00;100996.97;5075653;28;20021;-68
2022/12/21 01:00:57;;;;;;;33.40;20.90;;;;;;;9.37;100.00;101006.66;5075680;28;20024;-67
2022/12/21 01:03:24;;;;;;;31.30;19.88;;;;;;;9.41;100.00;101015.50;5075870;28;20031;-68
2022/12/21 01:05:51;;;;;;;33.08;20.35;;;;;;;9.41;100.00;101018.16;5075667;28;20097;-67
2022/12/21 01:08:18;;;;;;;35.75;21.52;;;;;;;9.42;100.00;101023.47;5075645;28;20063;-67
2022/12/21 01:10:43;;;;;;;34.80;20.83;;;;;;;9.43;100.00;101029.63;5075668;28;20028;-67
2022/12/21 01:13:10;;;;;;;31.38;20.58;;;;;;;9.42;100.00;101027.81;5075240;28;20035;-67
2022/12/21 01:15:43;;;;;;;35.28;21.30;;;;;;;9.41;100.00;101026.94;5075443;28;20024;-67
2022/12/21 01:18:10;;;;;;;32.15;21.48;;;;;;;9.42;100.00;101022.56;5075473;28;20122;-67
2022/12/21 01:20:48;;;;;;;34.47;20.95;;;;;;;9.47;100.00;101026.19;5057334;28;20123;-67
2022/12/21 01:23:15;;;;;;;32.50;20.45;;;;;;;9.45;100.00;101025.25;5075420;28;20043;-67
2022/12/21 01:25:42;;;;;;;31.20;20.85;;;;;;;9.41;100.00;101021.66;5075089;28;20048;-67
2022/12/21 01:28:08;;;;;;;30.15;20.80;;;;;;;9.41;100.00;101023.41;5075300;28;20032;-67
2022/12/21 01:30:33;;;;;;;33.22;21.15;;;;;;;9.42;100.00;101022.56;5075219;28;20024;-67
2022/12/21 01:32:58;;;;;;;38.33;22.20;;;;;;;9.40;100.00;101029.56;5074984;28;20082;-67
2022/12/21 01:35:24;;;;;;;32.85;19.95;;;;;;;9.36;100.00;101018.06;5075304;28;20048;-67
2022/12/21 01:37:49;;;;;;;33.20;21.63;;;;;;;9.33;100.00;101031.19;5074810;28;20036;-67
2022/12/21 01:40:15;;;;;;;34.25;20.42;;;;;;;9.29;100.00;101039.91;5075014;28;20435;-67
2022/12/21 01:42:40;;;;;;;34.47;21.50;;;;;;;9.25;100.00;101038.09;5074801;28;20028;-68
2022/12/21 01:45:06;;;;;;;34.22;21.13;;;;;;;9.21;100.00;101034.50;5074960;28;20115;-67
2022/12/21 01:47:46;;;;;;;34.42;21.55;;;;;;;9.22;100.00;101036.28;5074650;28;20028;-67
2022/12/21 01:50:23;;;;;;;40.03;23.35;;;;;;;9.27;100.00;101037.25;5074897;28;20020;-67
2022/12/21 01:52:50;;;;;;;38.10;22.55;;;;;;;9.27;100.00;101033.72;5074707;28;20033;-67
2022/12/21 01:55:16;;;;;;;35.58;22.38;;;;;;;9.28;100.00;101040.75;5074533;28;20071;-66
2022/12/21 01:57:41;;;;;;;29.00;18.67;;;;;;;9.29;100.00;101034.63;5074740;28;20064;-67
2022/12/21 02:00:10;;;;;;;35.70;22.95;;;;;;;9.32;100.00;101036.44;5074704;28;20055;-67
2022/12/21 02:02:48;;;;;;;36.70;22.80;;;;;;;9.33;100.00;101031.19;5057153;28;20036;-67
2022/12/21 02:05:19;;;;;;;36.58;22.50;;;;;;;9.33;100.00;101027.66;5070558;28;20098;-68
2022/12/21 02:07:45;;;;;;;34.97;22.50;;;;;;;9.34;100.00;101032.09;5093604;28;20043;-67
2022/12/21 02:10:11;;;;;;;37.08;22.77;;;;;;;9.29;100.00;101026.72;5076591;28;20386;-67
2022/12/21 02:12:38;;;;;;;33.83;22.25;;;;;;;9.29;100.00;101029.34;5094548;28;20046;-67
2022/12/21 02:15:04;;;;;;;35.95;21.75;;;;;;;9.29;100.00;101018.78;5094613;28;20135;-67
2022/12/21 02:17:41;;;;;;;39.53;23.10;;;;;;;9.34;100.00;101018.91;5094679;28;20425;-66
2022/12/21 02:20:34;;;;;;;36.10;23.48;;;;;;;9.33;100.00;101019.75;5094476;28;20032;-67
2022/12/21 02:22:59;;;;;;;;;;;;;;;9.35;100.00;101023.31;5094833;28;20099;-67
2022/12/21 02:25:34;;;;;;;38.97;22.05;;;;;;;9.28;100.00;101017.91;5094589;28;19954;-67
2022/12/21 02:28:37;;;;;;;35.17;22.83;;;;;;;9.30;100.00;101022.34;5094339;28;20097;-68
2022/12/21 02:31:22;;;;;;;33.78;21.42;;;;;;;9.33;100.00;101017.13;5094026;28;20472;-67
2022/12/21 02:33:59;;;;;;;37.53;21.73;;;;;;;9.30;100.00;101014.44;5094021;28;20039;-67
2022/12/21 02:36:27;;;;;;;34.33;20.45;;;;;;;9.28;100.00;101014.38;5075627;28;20393;-67
2022/12/21 02:38:55;;;;;;;35.33;21.67;;;;;;;9.26;100.00;101021.41;5093959;28;20016;-67
2022/12/21 02:41:36;;;;;;;37.80;22.08;;;;;;;9.23;100.00;101023.97;5093917;28;20032;-67
2022/12/21 02:44:13;;;;;;;37.05;22.05;;;;;;;9.23;100.00;101018.69;5094116;28;20028;-67
2022/12/21 02:46:42;;;;;;;33.90;20.25;;;;;;;9.20;100.00;101016.88;5094033;28;20024;-67
2022/12/21 02:49:19;;;;;;;33.70;21.02;;;;;;;9.19;100.00;101014.22;5093663;28;20040;-67
2022/12/21 02:51:44;;;;;;;33.95;21.70;;;;;;;9.16;100.00;101009.75;5093863;28;20032;-67
2022/12/21 02:54:13;;;;;;;36.13;22.00;;;;;;;9.12;100.00;101015.88;5093600;28;20036;-66
2022/12/21 02:56:38;;;;;;;31.52;20.25;;;;;;;9.10;100.00;101012.31;5093853;28;20028;-66
2022/12/21 02:59:07;;;;;;;38.50;21.77;;;;;;;9.12;100.00;101010.59;5093709;28;20035;-67
2022/12/21 03:01:50;;;;;;;37.13;22.50;;;;;;;9.12;100.00;101004.41;5093739;28;20032;-67
2022/12/21 03:04:33;;;;;;;35.80;21.85;;;;;;;9.13;100.00;101006.22;5093606;28;20053;-67
2022/12/21 03:07:20;;;;;;;38.15;22.85;;;;;;;9.16;100.00;101007.13;5093572;28;20036;-68
2022/12/21 03:10:16;;;;;;;35.63;22.08;;;;;;;9.20;100.00;101014.25;5093686;28;20032;-68
2022/12/21 03:12:58;;;;;;;40.90;23.95;;;;;;;9.18;100.00;101012.47;5093575;28;20036;-67
2022/12/21 03:15:23;;;;;;;42.80;23.13;;;;;;;9.17;100.00;101005.41;5093610;28;20484;-67
2022/12/21 03:18:19;;;;;;;39.42;23.05;;;;;;;9.13;100.00;101006.22;5093236;28;20044;-68
2022/12/21 03:20:56;;;;;;;42.92;23.33;;;;;;;9.15;100.00;100997.44;5075282;28;20054;-67
2022/12/21 03:23:31;;;;;;;38.30;23.38;;;;;;;9.13;100.00;100999.19;5093478;28;20062;-67
2022/12/21 03:26:29;;;;;;;42.55;23.95;;;;;;;9.10;100.00;100999.13;5093433;28;20080;-68
2022/12/21 03:28:58;;;;;;;38.80;23.60;;;;;;;9.09;100.00;101001.75;5085294;28;20032;-67
2022/12/21 03:31:31;;;;;;;43.75;24.33;;;;;;;9.06;100.00;100983.22;5093264;28;20031;-67
2022/12/21 03:34:03;;;;;;;39.55;24.90;;;;;;;9.09;100.00;100992.09;5093156;28;20036;-67
2022/12/21 03:36:43;;;;;;;42.65;24.00;;;;;;;9.10;100.00;100990.31;5093352;28;20020;-67
2022/12/21 03:39:12;;;;;;;41.92;24.00;;;;;;;9.12;100.00;100989.50;5093268;28;20032;-67
2022/12/21 03:41:56;;;;;;;38.00;21.90;;;;;;;9.18;100.00;100980.81;5093522;28;20494;-67
2022/12/21 03:44:28;;;;;;;41.35;23.98;;;;;;;9.21;100.00;100991.44;5093322;28;20024;-67
2022/12/21 03:47:01;;;;;;;38.92;23.75;;;;;;;9.17;100.00;101000.13;5093091;28;20024;-68
2022/12/21 03:49:38;;;;;;;34.63;21.38;;;;;;;9.15;100.00;101002.72;5092935;28;20043;-68
2022/12/21 03:52:13;;;;;;;41.45;24.60;;;;;;;9.12;100.00;101002.69;5093123;28;20149;-68
2022/12/21 03:54:48;;;;;;;43.25;24.20;;;;;;;9.16;100.00;100996.59;5093042;28;20024;-67
2022/12/21 03:57:15;;;;;;;39.58;24.23;;;;;;;9.15;100.00;100997.44;5092886;28;20032;-67
2022/12/21 03:59:45;;;;;;;44.95;25.17;;;;;;;9.14;100.00;100997.44;5093034;28;20024;-68
2022/12/21 04:02:14;;;;;;;43.63;25.42;;;;;;;9.13;100.00;100993.03;5092812;28;20220;-68
2022/12/21 04:04:47;;;;;;;40.45;24.92;;;;;;;9.12;100.00;100981.59;5092952;28;20020;-67
2022/12/21 04:07:15;;;;;;;39.25;24.48;;;;;;;9.12;100.00;100993.88;5092602;28;20028;-68
2022/12/21 04:09:41;;;;;;;44.85;25.60;;;;;;;9.04;100.00;101004.28;5093000;28;20038;-67
2022/12/21 04:14:51;;;;;;;44.97;24.08;;;;;;;8.95;100.00;100983.91;5092619;28;20040;-68
2022/12/21 04:17:16;;;;;;;43.97;24.70;;;;;;;8.91;100.00;100989.09;5092663;28;20040;-67
2022/12/21 04:20:02;;;;;;;40.47;23.25;;;;;;;8.88;100.00;100995.19;5092868;28;20028;-68
2022/12/21 04:28:07;;;;;;;39.15;22.33;;;;;;;8.84;100.00;100997.72;5092914;28;20062;-67
2022/12/21 04:30:33;;;;;;;39.45;22.02;;;;;;;8.80;100.00;100993.25;5096114;28;20032;-68
2022/12/21 04:32:58;;;;;;;37.75;21.33;;;;;;;8.75;100.00;100996.69;5096557;28;20032;-67
2022/12/21 04:35:24;;;;;;;37.80;19.27;;;;;;;8.71;100.00;100980.78;5096347;28;20030;-67
2022/12/21 04:37:49;;;;;;;33.08;19.13;;;;;;;8.73;100.00;100987.84;5096181;28;20030;-67
2022/12/21 04:40:14;;;;;;;35.92;19.73;;;;;;;8.69;100.00;100978.13;5096425;28;20378;-68
2022/12/21 04:42:40;;;;;;;33.60;19.33;;;;;;;8.70;100.00;100985.16;5096500;28;20028;-67
2022/12/21 04:45:06;;;;;;;32.65;16.67;;;;;;;8.67;100.00;100985.09;5096369;28;20489;-67
2022/12/21 04:47:31;;;;;;;31.38;16.08;;;;;;;8.65;100.00;100981.56;5044615;28;20031;-67
2022/12/21 04:49:57;;;;;;;31.20;16.63;;;;;;;8.66;100.00;100979.81;5096305;28;20170;-67
2022/12/21 04:52:22;;;;;;;28.45;15.50;;;;;;;8.67;100.00;100973.66;5095950;28;20409;-68
2022/12/21 04:54:47;;;;;;;26.05;14.68;;;;;;;8.70;100.00;100979.00;5096123;28;20106;-67
2022/12/21 04:57:13;;;;;;;30.83;14.45;;;;;;;8.71;100.00;100973.75;5096037;28;20019;-67
2022/12/21 04:59:38;;;;;;;26.98;15.40;;;;;;;8.72;100.00;100972.91;5096079;28;20495;-68
2022/12/21 05:02:04;;;;;;;29.00;14.88;;;;;;;8.71;100.00;100972.88;5095848;28;20028;-67
2022/12/21 05:04:30;;;;;;;25.75;14.10;;;;;;;8.70;100.00;100979.00;5096041;28;20043;-67
2022/12/21 05:06:55;;;;;;;24.35;14.10;;;;;;;8.67;100.00;100978.94;5095571;28;20028;-68
2022/12/21 05:09:20;;;;;;;25.00;13.95;;;;;;;8.67;100.00;100966.66;5095832;28;20516;-67
2022/12/21 05:11:46;;;;;;;25.70;13.73;;;;;;;8.67;100.00;100969.28;5078035;28;20028;-67
2022/12/21 05:14:11;;;;;;;22.17;12.98;;;;;;;8.67;100.00;100964.00;5095633;28;20425;-68
2022/12/21 05:16:40;;;;;;;26.90;13.68;;;;;;;8.68;100.00;100968.41;5095809;28;20027;-68
2022/12/21 05:19:05;;;;;;;22.20;13.15;;;;;;;8.67;100.00;100974.56;5095759;28;20031;-68
2022/12/21 05:21:31;;;;;;;22.55;12.93;;;;;;;8.67;100.00;100978.94;5095578;28;20028;-68
2022/12/21 05:23:57;;;;;;;27.55;14.02;;;;;;;8.65;100.00;100984.19;5095579;28;20393;-67
2022/12/21 05:26:23;;;;;;;22.17;11.70;;;;;;;8.66;100.00;100985.06;5095755;28;20028;-67
2022/12/21 05:28:48;;;;;;;24.83;12.88;;;;;;;8.64;100.00;100976.22;5077250;28;20077;-67
2022/12/21 05:31:15;;;;;;;23.33;12.38;;;;;;;8.65;100.00;100972.72;5095546;28;20389;-68
2022/12/21 05:33:41;;;;;;;21.10;12.23;;;;;;;8.62;100.00;100972.69;5095832;28;20024;-67
2022/12/21 05:36:09;;;;;;;18.67;11.48;;;;;;;8.63;100.00;100974.47;5095186;28;20031;-67
2022/12/21 05:38:34;;;;;;;24.08;12.02;;;;;;;8.63;100.00;100961.28;5095164;28;20115;-67
2022/12/21 05:41:00;;;;;;;21.70;11.98;;;;;;;8.57;100.00;100959.44;5095164;28;20104;-68
2022/12/21 05:43:25;;;;;;;24.35;12.27;;;;;;;8.59;100.00;100960.34;5095245;28;20031;-67
2022/12/21 05:45:50;;;;;;;25.88;11.93;;;;;;;8.58;100.00;100968.22;5095156;28;20062;-68
2022/12/21 05:48:16;;;;;;;19.73;11.07;;;;;;;8.57;100.00;100975.22;5077103;28;20044;-67
2022/12/21 05:50:42;;;;;;;16.80;11.18;;;;;;;8.56;100.00;100972.53;5094611;28;20035;-67
2022/12/21 05:53:08;;;;;;;24.00;11.45;;;;;;;8.56;100.00;100970.78;5094840;28;20024;-67
2022/12/21 05:55:33;;;;;;;21.67;11.00;;;;;;;8.53;100.00;100969.00;5095197;28;20024;-68
2022/12/21 05:57:59;;;;;;;19.73;11.00;;;;;;;8.50;100.00;100960.16;5094850;28;20028;-67
2022/12/21 06:00:25;;;;;;;19.00;10.52;;;;;;;8.47;100.00;100958.31;5094841;28;20033;-67
2022/12/21 06:02:51;;;;;;;20.10;10.02;;;;;;;8.49;100.00;100971.53;5094830;28;20020;-68
2022/12/21 06:05:17;;;;;;;17.73;10.40;;;;;;;8.47;100.00;100962.72;5094856;28;20060;-67
2022/12/21 06:07:42;;;;;;;22.63;11.52;;;;;;;8.43;100.00;100960.88;5094505;28;20393;-67
2022/12/21 06:10:08;;;;;;;22.73;11.13;;;;;;;8.37;100.00;100956.38;5094655;28;20466;-67
2022/12/21 06:12:34;;;;;;;17.85;10.18;;;;;;;8.32;100.00;100960.63;5094356;28;20059;-67
2022/12/21 06:15:00;;;;;;;19.05;10.15;;;;;;;8.26;100.00;100950.84;5094525;28;20060;-68
2022/12/21 06:17:26;;;;;;;19.15;9.52;;;;;;;8.24;100.00;100951.66;5076173;28;20477;-67
2022/12/21 06:19:52;;;;;;;19.63;9.38;;;;;;;8.19;100.00;100966.47;5094575;28;20020;-68
2022/12/21 06:22:18;;;;;;;17.10;9.52;;;;;;;8.17;100.00;100961.16;5094456;28;20363;-67
2022/12/21 06:24:43;;;;;;;16.80;8.75;;;;;;;8.16;100.00;100962.00;5094419;28;20392;-67
2022/12/21 06:27:09;;;;;;;18.10;8.70;;;;;;;8.17;100.00;100961.16;5094326;28;20024;-67
2022/12/21 06:29:34;;;;;;;18.45;9.02;;;;;;;8.16;100.00;100954.13;5094349;28;20509;-67
2022/12/21 06:32:00;;;;;;;15.40;8.18;;;;;;;8.17;100.00;100955.00;5094242;28;20536;-68
2022/12/21 06:34:25;;;;;;;16.85;8.48;;;;;;;8.18;100.00;100959.41;5094010;28;20039;-67
2022/12/21 06:36:50;;;;;;;16.70;8.63;;;;;;;8.16;100.00;100956.75;5094021;28;20027;-67
2022/12/21 06:39:16;;;;;;;16.20;8.10;;;;;;;8.14;100.00;100968.13;5075925;28;20039;-67
2022/12/21 06:41:41;;;;;;;15.38;7.95;;;;;;;8.13;100.00;100958.41;5094288;28;20039;-67
2022/12/21 06:44:08;;;;;;;16.90;7.55;;;;;;;8.14;100.00;100954.97;5093967;28;20486;-67
2022/12/21 06:46:33;;;;;;;17.10;7.32;;;;;;;8.14;100.00;100945.31;5094077;28;20483;-66
2022/12/21 06:48:59;;;;;;;15.73;7.53;;;;;;;8.18;100.00;100957.69;5093707;28;20123;-66
2022/12/21 06:51:24;;;;;;;14.88;7.28;;;;;;;8.20;100.00;100968.25;5093703;28;20052;-66
2022/12/21 06:53:52;;;;;;;13.57;6.47;;;;;;;8.24;100.00;100962.19;5075693;28;20036;-67
2022/12/21 06:56:20;;;;;;;13.43;7.18;;;;;;;8.24;100.00;100965.72;5093843;28;20381;-67
2022/12/21 06:58:48;;;;;;;14.80;6.88;;;;;;;8.25;100.00;100967.47;5093749;28;20020;-67
2022/12/21 07:01:17;;;;;;;10.85;6.28;;;;;;;8.23;100.00;100979.72;5093773;28;20020;-67
2022/12/21 07:03:43;;;;;;;12.85;5.90;;;;;;;8.21;100.00;100980.53;5093668;28;20024;-67
2022/12/21 07:06:11;;;;;;;11.63;6.13;;;;;;;8.20;100.00;100981.41;5093870;28;20134;-67
2022/12/21 07:08:37;;;;;;;11.27;5.95;;;;;;;8.20;100.00;100984.03;5093537;28;20081;-67
2022/12/21 07:11:05;;;;;;;10.35;6.13;;;;;;;8.16;100.00;100984.81;5093592;28;20036;-67
2022/12/21 07:13:34;;;;;;;11.85;5.93;;;;;;;8.11;100.00;100987.34;5093491;28;20061;-67
2022/12/21 07:16:00;;;;;;;11.23;6.03;;;;;;;8.08;100.00;100983.75;5093630;28;20016;-66
2022/12/21 07:18:25;;;;;;;14.02;6.65;;;;;;;8.08;100.00;100984.63;5093288;28;20028;-67
2022/12/21 07:20:57;;;;;;;10.45;5.28;;;;;;;8.06;100.00;100986.34;5093488;28;20031;-67
2022/12/21 07:23:23;;;;;;;;;;;;;;;8.06;100.00;100988.09;5093934;28;20024;-67
2022/12/21 07:25:48;;;;;;;12.57;4.95;;;;;;;7.96;100.00;100987.88;5093463;28;19922;-68
2022/12/21 07:28:14;;;;;;;14.15;5.38;;;;;;;7.94;100.00;100984.31;5093441;28;20503;-66
2022/12/21 07:30:39;;;;;;;12.73;5.57;;;;;;;7.94;100.00;100994.84;5093327;28;20029;-67
2022/12/21 07:33:05;;;;;;;11.90;5.05;;;;;;;7.95;100.00;100988.72;5093114;28;20812;-67
2022/12/21 07:35:31;;;;;;;10.93;5.00;;;;;;;7.93;100.00;100990.44;5093248;28;20035;-67
2022/12/21 07:37:56;;;;;;;13.95;5.30;;;;;;;7.96;100.00;100997.50;5093023;28;20036;-68
2022/12/21 07:40:22;;;;;;;9.40;4.95;;;;;;;7.96;100.00;100997.50;5093144;28;20145;-67
2022/12/21 07:42:47;;;;;;;14.80;5.05;;;;;;;7.95;100.00;101006.25;5093216;28;20077;-67
2022/12/21 07:45:14;;;;;;;13.70;4.82;;;;;;;7.93;100.00;101013.25;5093064;28;20099;-67
2022/12/21 07:47:39;;;;;;;11.48;4.70;;;;;;;7.91;100.00;101017.56;5092820;28;20024;-67
2022/12/21 07:50:07;;;;;;;13.65;4.57;;;;;;;7.88;100.00;101020.09;5092881;28;20441;-67
2022/12/21 07:52:33;;;;;;;12.85;4.90;;;;;;;7.84;100.00;101029.69;5093070;28;20135;-66
2022/12/21 07:54:58;;;;;;;18.33;4.85;;;;;;;7.85;100.00;101036.72;5092944;28;20407;-67
2022/12/21 07:57:24;;;;;;;13.50;4.63;;;;;;;7.88;100.00;101049.97;5093169;28;20073;-67
2022/12/21 07:59:49;;;;;;;13.63;5.07;;;;;;;7.91;100.00;101043.88;5092935;28;20063;-67
2022/12/21 08:02:15;;;;;;;14.23;4.65;;;;;;;7.93;100.00;101045.69;5092721;28;20024;-67
2022/12/21 08:04:40;;;;;;;10.75;4.68;;;;;;;7.95;100.00;101048.34;5095191;28;20150;-67
2022/12/21 08:07:06;;;;;;;11.55;5.32;;;;;;;7.93;100.00;101037.81;5096778;28;20035;-67
2022/12/21 08:09:35;;;;;;;17.35;5.53;;;;;;;7.91;100.00;101036.88;5097125;28;20024;-66
2022/12/21 08:12:01;;;;;;;11.32;5.30;;;;;;;7.93;100.00;101043.06;5097057;28;20478;-67
2022/12/21 08:14:26;;;;;;;11.07;5.75;;;;;;;7.94;100.00;101036.06;5096865;28;20031;-67
2022/12/21 08:16:52;;;;;;;11.45;5.53;;;;;;;7.92;100.00;101022.88;5096662;28;20032;-66
2022/12/21 08:19:17;;;;;;;13.45;6.35;;;;;;;7.89;100.00;101035.06;5096762;28;20398;-66
2022/12/21 08:21:43;;;;;;;11.43;5.82;;;;;;;7.89;100.00;101032.44;5096857;28;20378;-67
2022/12/21 08:24:09;;;;;;;12.98;5.80;;;;;;;7.85;100.00;101038.47;5096716;28;20046;-67
2022/12/21 08:26:34;;;;;;;12.68;6.45;;;;;;;7.85;100.00;101042.00;5096753;28;20107;-67
2022/12/21 08:28:59;;;;;;;19.60;6.13;;;;;;;7.90;100.00;101058.78;5096611;28;20111;-66
2022/12/21 08:31:25;;;;;;;14.70;6.22;;;;;;;7.94;100.00;101047.47;5096523;28;20477;-67
2022/12/21 08:33:51;;;;;;;14.02;6.40;;;;;;;7.97;100.00;101041.41;5096392;28;20028;-68
2022/12/21 08:36:19;;;;;;;14.18;6.57;;;;;;;7.99;100.00;101039.69;5096848;28;20438;-67
2022/12/21 08:38:45;;;;;;;15.85;7.47;;;;;;;8.01;100.00;101035.38;5096266;28;20020;-67
2022/12/21 08:41:11;;;;;;;14.82;6.65;;;;;;;8.02;100.00;101026.63;5096321;28;20024;-67
2022/12/21 08:43:37;;;;;;;20.02;7.70;;;;;;;8.02;100.00;101032.75;5078398;28;20027;-67
2022/12/21 08:46:07;;;;;;;17.40;7.10;;;;;;;8.08;100.00;101034.63;5096202;28;20494;-67
2022/12/21 08:48:33;;;;;;;20.95;8.25;;;;;;;8.12;100.00;101036.50;5096109;28;20044;-67
2022/12/21 08:50:58;;;;;;;16.58;8.05;;;;;;;8.15;100.00;101043.59;5096274;28;20089;-67
2022/12/21 08:53:24;;;;;;;17.38;8.15;;;;;;;8.19;100.00;101038.44;5096412;28;20028;-67
2022/12/21 08:55:50;;;;;;;14.85;8.10;;;;;;;8.25;100.00;101046.44;5096179;28;20028;-67
2022/12/21 08:58:16;;;;;;;19.13;8.25;;;;;;;8.26;100.00;101048.25;5096139;28;20020;-68
2022/12/21 09:00:42;;;;;;;17.92;8.55;;;;;;;8.23;100.00;101045.53;5095922;28;20028;-66
2022/12/21 09:03:08;;;;;;;19.83;8.75;;;;;;;8.19;100.00;101045.44;5095786;28;20027;-68
2022/12/21 09:05:34;;;;;;;21.88;8.30;;;;;;;8.20;100.00;101058.63;5096150;28;20024;-67
2022/12/21 09:08:01;;;;;;;19.55;9.02;;;;;;;8.20;100.00;101058.63;5095806;28;20504;-67
2022/12/21 09:10:28;;;;;;;16.55;7.95;;;;;;;8.21;100.00;101055.13;5095895;28;20389;-66
2022/12/21 09:12:55;;;;;;;18.33;9.15;;;;;;;8.22;100.00;101058.66;5095685;28;20032;-67
2022/12/21 09:15:20;;;;;;;23.45;9.52;;;;;;;8.20;100.00;101045.47;5095368;28;20078;-67
2022/12/21 09:17:46;;;;;;;18.90;10.00;;;;;;;8.22;100.00;101041.13;5095632;28;20020;-67
2022/12/21 09:20:12;;;;;;;20.17;9.98;;;;;;;8.23;100.00;101042.03;5095698;28;20034;-66
2022/12/21 09:22:37;;;;;;;20.88;10.45;;;;;;;8.25;100.00;101024.50;5095726;28;20489;-67
2022/12/21 09:25:03;;;;;;;21.40;10.38;;;;;;;8.26;100.00;101040.38;5095575;28;20042;-68
2022/12/21 09:27:29;;;;;;;25.50;11.32;;;;;;;8.27;100.00;101028.97;5095447;28;20024;-67
2022/12/21 09:29:54;;;;;;;23.45;11.13;;;;;;;8.23;100.00;101028.88;5095379;28;20024;-67
2022/12/21 09:32:20;;;;;;;25.73;11.10;;;;;;;8.29;100.00;101039.53;5095590;28;20024;-66
2022/12/21 09:34:45;;;;;;;30.25;11.55;;;;;;;8.34;100.00;101045.78;5095418;28;20055;-67
2022/12/21 09:37:10;;;;;;;20.08;11.10;;;;;;;8.41;100.00;101049.50;5095150;28;20508;-67
2022/12/21 09:39:37;;;;;;;24.38;11.50;;;;;;;8.44;100.00;101041.66;5095432;28;20024;-67
2022/12/21 09:42:21;;;;;;;27.52;11.75;;;;;;;8.47;100.00;101042.59;5095148;28;20459;-67
2022/12/21 09:45:05;;;;;;;24.92;12.45;;;;;;;8.50;100.00;101047.94;5095334;28;20032;-67
2022/12/21 09:47:37;;;;;;;31.42;11.98;;;;;;;8.53;100.00;101048.03;5095099;28;20024;-66
2022/12/21 09:50:11;;;;;;;25.73;11.38;;;;;;;8.57;100.00;101051.63;5076855;28;20055;-67
2022/12/21 09:52:41;;;;;;;27.13;12.10;;;;;;;8.58;100.00;101061.28;5095090;28;20553;-67
2022/12/21 09:55:36;;;;;;;20.50;11.63;;;;;;;8.66;100.00;101061.47;5095120;28;20028;-67
2022/12/21 09:58:08;;;;;;;23.90;12.82;;;;;;;8.68;100.00;101065.88;5093702;28;20112;-67
2022/12/21 10:00:36;;;;;;;24.83;11.60;;;;;;;8.67;100.00;101057.97;5094928;28;20465;-67
2022/12/21 10:03:17;;;;;;;25.10;12.07;;;;;;;8.73;100.00;101061.59;5094407;28;20016;-67
2022/12/21 10:06:15;;;;;;;25.08;11.73;;;;;;;8.74;100.00;101063.41;5076746;28;20537;-67
2022/12/21 10:08:52;;;;;;;28.70;11.82;;;;;;;8.78;100.00;101064.38;5094981;28;20028;-67
2022/12/21 10:11:18;;;;;;;24.33;10.75;;;;;;;8.83;100.00;101059.19;5094526;28;20036;-68
2022/12/21 10:13:58;;;;;;;24.75;11.50;;;;;;;8.80;100.00;101060.00;5094538;28;20073;-67
2022/12/21 10:16:40;;;;;;;25.27;11.07;;;;;;;8.82;100.00;101052.13;5094600;28;20039;-67
2022/12/21 10:19:41;;;;;;;23.05;10.43;;;;;;;8.82;100.00;101060.91;5094602;28;20462;-67
2022/12/21 10:22:19;;;;;;;24.80;11.05;;;;;;;8.81;100.00;101066.16;5094322;28;20038;-67
2022/12/21 10:24:58;;;;;;;26.98;10.38;;;;;;;8.76;100.00;101071.34;5094212;28;20481;-67
2022/12/21 10:27:23;;;;;;;21.55;10.13;;;;;;;8.76;100.00;101076.59;5093584;28;20036;-67
2022/12/21 10:29:54;;;;;;;24.35;10.93;;;;;;;8.72;100.00;101061.59;5094559;28;20024;-67
2022/12/21 10:32:21;;;;;;;23.73;10.38;;;;;;;8.66;100.00;101067.63;5094035;28;20020;-66
2022/12/21 10:34:51;;;;;;;24.40;11.23;;;;;;;8.62;100.00;101065.78;5094195;28;20497;-67
2022/12/21 10:37:19;;;;;;;21.05;9.90;;;;;;;8.59;100.00;101056.91;5094259;28;20020;-67
2022/12/21 10:39:56;;;;;;;23.50;10.70;;;;;;;8.58;100.00;101044.59;5094281;28;20043;-67
2022/12/21 10:42:38;;;;;;;22.63;10.55;;;;;;;8.58;100.00;101050.75;5094122;28;20099;-67
2022/12/21 10:45:04;;;;;;;22.17;10.13;;;;;;;8.62;100.00;101052.59;5076344;28;20028;-67
2022/12/21 10:47:29;;;;;;;26.15;9.55;;;;;;;8.62;100.00;101042.06;5093978;28;20024;-67
2022/12/21 10:50:03;;;;;;;22.73;10.00;;;;;;;8.68;100.00;101038.66;5093689;28;20048;-66
2022/12/21 10:52:39;;;;;;;24.58;9.80;;;;;;;8.67;100.00;101034.25;5094089;28;20105;-66
2022/12/21 10:55:34;;;;;;;19.67;9.95;;;;;;;8.70;100.00;101021.16;5093708;28;20088;-67
2022/12/21 10:58:18;;;;;;;20.30;10.40;;;;;;;8.70;100.00;101029.06;5075896;28;20081;-66
2022/12/21 11:01:15;;;;;;;22.20;9.75;;;;;;;8.72;100.00;101020.31;5093757;28;20047;-67
2022/12/21 11:03:41;;;;;;;22.50;9.85;;;;;;;8.74;100.00;101012.47;5093577;28;20036;-68
2022/12/21 11:06:13;;;;;;;20.05;9.52;;;;;;;8.75;100.00;101003.69;5093701;28;20026;-66
2022/12/21 11:08:45;;;;;;;19.80;9.57;;;;;;;8.76;100.00;101019.53;5093400;28;20035;-67
2022/12/21 11:11:25;;;;;;;28.17;9.40;;;;;;;8.78;100.00;101022.22;5093718;28;20049;-67
2022/12/21 11:14:15;;;;;;;21.67;9.63;;;;;;;8.83;100.00;101019.66;5093618;28;20027;-67
2022/12/21 11:16:41;;;;;;;21.67;10.27;;;;;;;8.82;100.00;101018.75;5093508;28;20055;-67
2022/12/21 11:19:15;;;;;;;22.10;9.90;;;;;;;8.86;100.00;101017.06;5093492;28;20481;-67
2022/12/21 11:21:50;;;;;;;21.55;10.45;;;;;;;8.85;100.00;101013.56;5093477;28;20055;-67
2022/12/21 11:24:16;;;;;;;26.45;10.25;;;;;;;8.87;100.00;101026.78;5093405;28;20028;-66
2022/12/21 11:26:48;;;;;;;22.75;10.45;;;;;;;8.87;100.00;101013.59;5093088;28;20964;-68
2022/12/21 11:29:21;;;;;;;23.35;10.07;;;;;;;8.85;100.00;101016.19;5093175;28;20504;-68
2022/12/21 11:31:47;;;;;;;18.77;10.30;;;;;;;8.87;100.00;101013.59;5093453;28;20020;-67